Time;durP1;ratioP1;P1;durP2;ratioP2;P2;SDS_P1;SDS_P2;PMS_P1;PMS_P2;Temp;Humidity;BMP_temperature;BMP_pressure;BME280_temperature;BME280_humidity;BME280_pressure;Samples;Min_cycle;Max_cycle;Signal;HPM_P1;HPM_P2
2022/12/11 00:01:55;;;;;;;37.78;19.35;;;1.10;99.90;;;;;;4886562;29;20033;-68
2022/12/11 00:04:21;;;;;;;38.00;20.37;;;1.10;99.90;;;;;;4884625;29;20033;-69
2022/12/11 00:06:49;;;;;;;37.07;19.67;;;1.20;99.90;;;;;;4882409;29;20048;-68
2022/12/11 00:09:18;;;;;;;37.28;19.00;;;1.20;99.90;;;;;;4882392;29;20049;-68
2022/12/11 00:11:43;;;;;;;37.95;20.60;;;1.20;99.90;;;;;;4880816;29;20432;-68
2022/12/11 00:14:09;;;;;;;41.33;21.90;;;1.10;99.90;;;;;;4880560;29;20088;-68
2022/12/11 00:16:35;;;;;;;39.87;20.20;;;1.10;99.90;;;;;;4883959;29;20032;-68
2022/12/11 00:19:00;;;;;;;43.97;22.40;;;1.00;99.90;;;;;;4881548;29;20028;-68
2022/12/11 00:21:26;;;;;;;41.67;20.73;;;1.00;99.90;;;;;;4880711;29;20025;-68
2022/12/11 00:23:51;;;;;;;43.57;20.17;;;0.90;99.90;;;;;;4881990;29;20272;-69
2022/12/11 00:26:17;;;;;;;46.27;21.53;;;1.00;99.90;;;;;;4881563;29;20032;-68
2022/12/11 00:28:44;;;;;;;39.83;20.87;;;1.00;99.90;;;;;;4881975;29;20548;-68
2022/12/11 00:31:15;;;;;;;42.45;20.98;;;1.00;99.90;;;;;;4881772;29;20103;-68
2022/12/11 00:33:43;;;;;;;41.42;20.70;;;1.00;99.90;;;;;;4881264;29;20035;-68
2022/12/11 00:36:22;;;;;;;44.15;20.63;;;1.00;99.90;;;;;;4879698;29;20048;-68
2022/12/11 00:38:48;;;;;;;41.00;21.35;;;0.90;99.90;;;;;;4889542;29;20053;-68
2022/12/11 00:41:14;;;;;;;41.92;21.58;;;0.90;99.90;;;;;;4886226;29;20040;-68
2022/12/11 00:43:40;;;;;;;39.95;20.15;;;0.80;99.90;;;;;;4881922;29;20044;-68
2022/12/11 00:46:06;;;;;;;42.17;21.70;;;0.70;99.90;;;;;;4881353;29;20033;-68
2022/12/11 00:48:31;;;;;;;39.42;19.45;;;0.70;99.90;;;;;;4881193;29;20427;-68
2022/12/11 00:50:57;;;;;;;42.63;20.97;;;0.70;99.90;;;;;;4881371;29;20100;-68
2022/12/11 00:53:23;;;;;;;40.97;20.43;;;0.60;99.90;;;;;;4881437;29;20031;-66
2022/12/11 00:55:48;;;;;;;41.65;20.08;;;0.70;99.90;;;;;;4881154;29;20029;-68
2022/12/11 00:58:14;;;;;;;33.97;18.40;;;0.70;99.90;;;;;;4882462;29;20139;-68
2022/12/11 01:00:40;;;;;;;35.40;18.23;;;0.60;99.90;;;;;;4884223;29;20044;-68
2022/12/11 01:03:06;;;;;;;37.03;18.63;;;0.60;99.90;;;;;;4881678;29;20044;-67
2022/12/11 01:05:32;;;;;;;41.65;19.92;;;0.50;99.90;;;;;;4880813;29;20045;-67
2022/12/11 01:07:58;;;;;;;45.15;21.20;;;0.60;99.90;;;;;;4895399;29;20067;-67
2022/12/11 01:10:24;;;;;;;38.30;19.23;;;0.40;99.90;;;;;;4882409;29;20125;-68
2022/12/11 01:13:01;;;;;;;39.17;19.43;;;0.50;99.90;;;;;;4881112;29;20262;-67
2022/12/11 01:15:30;;;;;;;41.47;20.73;;;0.50;99.90;;;;;;4881137;29;20406;-67
2022/12/11 01:17:56;;;;;;;37.00;18.38;;;0.60;99.90;;;;;;4880753;29;20044;-67
2022/12/11 01:20:23;;;;;;;37.85;18.40;;;0.50;99.90;;;;;;4880872;29;20375;-67
2022/12/11 01:22:52;;;;;;;;;;;0.50;99.90;;;;;;4881865;29;20040;-67
2022/12/11 01:25:18;;;;;;;40.90;19.50;;;0.50;99.90;;;;;;4881579;29;19938;-67
2022/12/11 01:27:44;;;;;;;40.65;20.20;;;0.40;99.90;;;;;;4880836;29;20108;-67
2022/12/11 01:30:11;;;;;;;41.93;20.83;;;0.40;99.90;;;;;;4880721;29;20486;-68
2022/12/11 01:32:37;;;;;;;44.40;19.58;;;0.40;99.90;;;;;;4880878;29;20573;-68
2022/12/11 01:35:06;;;;;;;47.90;22.30;;;0.40;99.90;;;;;;4895391;29;20123;-67
2022/12/11 01:37:32;;;;;;;43.53;20.02;;;0.30;99.90;;;;;;4880693;29;20120;-68
2022/12/11 01:39:59;;;;;;;41.80;20.05;;;0.30;99.90;;;;;;4881204;29;20033;-68
2022/12/11 01:42:25;;;;;;;50.03;20.88;;;0.20;99.90;;;;;;4923123;23;20051;-69
2022/12/11 01:44:50;;;;;;;50.00;20.75;;;0.00;99.90;;;;;;4918990;29;20024;-68
2022/12/11 01:47:16;;;;;;;47.67;20.60;;;0.00;99.90;;;;;;4900008;29;20035;-70
2022/12/11 01:49:42;;;;;;;44.23;21.77;;;0.10;99.90;;;;;;4901122;29;20386;-70
2022/12/11 01:52:15;;;;;;;47.25;21.33;;;0.00;99.90;;;;;;4901024;29;20161;-69
2022/12/11 01:54:42;;;;;;;50.63;21.73;;;-0.10;99.90;;;;;;4898646;29;20483;-68
2022/12/11 01:57:08;;;;;;;;;;;-0.10;99.90;;;;;;4899669;29;20098;-70
2022/12/11 01:59:37;;;;;;;43.40;21.02;;;-0.20;99.90;;;;;;4898511;29;20002;-69
2022/12/11 02:02:07;;;;;;;50.05;21.83;;;-0.20;99.90;;;;;;4898580;29;20077;-69
2022/12/11 02:04:36;;;;;;;51.42;21.83;;;-0.20;99.90;;;;;;4898392;29;20430;-70
2022/12/11 02:07:02;;;;;;;51.90;22.48;;;-0.30;99.90;;;;;;4898252;29;20033;-69
2022/12/11 02:09:31;;;;;;;48.38;21.77;;;-0.30;99.90;;;;;;4897666;29;20059;-69
2022/12/11 02:12:22;;;;;;;55.08;22.50;;;-0.30;99.90;;;;;;4898289;29;20079;-70
2022/12/11 02:15:16;;;;;;;52.10;21.63;;;-0.30;99.90;;;;;;4898586;29;20050;-68
2022/12/11 02:17:57;;;;;;;53.60;23.05;;;-0.40;99.90;;;;;;4898686;29;20021;-69
2022/12/11 02:20:34;;;;;;;53.97;23.52;;;-0.30;99.90;;;;;;4897297;29;20029;-69
2022/12/11 02:23:27;;;;;;;56.00;22.77;;;-0.50;99.90;;;;;;4898407;29;20029;-68
2022/12/11 02:26:32;;;;;;;58.03;23.52;;;-0.40;99.90;;;;;;4897993;29;20037;-70
2022/12/11 02:29:06;;;;;;;52.90;22.85;;;-0.40;99.90;;;;;;4899283;29;20024;-69
2022/12/11 02:31:37;;;;;;;56.78;22.48;;;-0.40;99.90;;;;;;4897761;29;20028;-69
2022/12/11 02:34:11;;;;;;;54.85;23.15;;;-0.50;99.90;;;;;;4898959;29;20390;-69
2022/12/11 02:36:45;;;;;;;55.38;23.88;;;-0.60;99.90;;;;;;4899298;29;20029;-69
2022/12/11 02:39:14;;;;;;;61.25;22.88;;;-0.50;99.90;;;;;;4898759;29;20032;-69
2022/12/11 02:41:44;;;;;;;57.80;24.25;;;-0.50;99.90;;;;;;4897594;29;20116;-69
2022/12/11 02:44:13;;;;;;;58.08;23.25;;;-0.60;99.90;;;;;;4899102;29;20024;-69
2022/12/11 02:46:39;;;;;;;60.90;22.63;;;-0.70;99.90;;;;;;4901402;29;20025;-69
2022/12/11 02:49:06;;;;;;;54.88;23.85;;;-0.50;99.90;;;;;;4897665;29;20025;-69
2022/12/11 02:51:37;;;;;;;56.80;22.58;;;-0.60;99.90;;;;;;4898679;29;20033;-68
2022/12/11 02:54:06;;;;;;;59.80;23.88;;;-0.50;99.90;;;;;;4897324;29;20080;-69
2022/12/11 02:57:21;;;;;;;61.92;24.08;;;-0.60;99.90;;;;;;4898617;29;20028;-70
2022/12/11 02:59:47;;;;;;;56.40;24.17;;;-0.60;99.90;;;;;;4879135;29;20040;-70
2022/12/11 03:02:14;;;;;;;71.17;24.53;;;-0.70;99.90;;;;;;4901479;29;20550;-69
2022/12/11 03:04:41;;;;;;;58.95;21.23;;;-0.70;99.90;;;;;;4901467;29;20084;-69
2022/12/11 03:07:12;;;;;;;64.05;24.02;;;-0.70;99.90;;;;;;4902491;29;20100;-69
2022/12/11 03:09:40;;;;;;;62.22;23.40;;;-0.70;99.90;;;;;;4902722;29;20379;-69
2022/12/11 03:12:08;;;;;;;65.50;23.45;;;-0.80;99.90;;;;;;4901897;29;20024;-68
2022/12/11 03:14:35;;;;;;;56.58;22.55;;;-0.80;99.90;;;;;;4902557;29;20061;-69
2022/12/11 03:17:11;;;;;;;54.67;21.70;;;-0.80;99.90;;;;;;4901352;29;20367;-69
2022/12/11 03:19:44;;;;;;;54.20;22.23;;;-0.70;99.90;;;;;;4902347;29;20071;-69
2022/12/11 03:22:19;;;;;;;63.13;23.45;;;-0.70;99.90;;;;;;4900615;29;20164;-69
2022/12/11 03:24:51;;;;;;;59.95;22.77;;;-0.60;99.90;;;;;;4902353;29;20036;-70
2022/12/11 03:27:35;;;;;;;57.15;23.73;;;-0.50;99.90;;;;;;4900821;29;20157;-70
2022/12/11 03:30:09;;;;;;;56.35;22.58;;;-0.50;99.90;;;;;;4901831;29;20084;-69
2022/12/11 03:33:01;;;;;;;57.90;22.92;;;-0.40;99.90;;;;;;4902291;29;20028;-69
2022/12/11 03:35:33;;;;;;;58.40;24.15;;;-0.30;99.90;;;;;;4901268;29;20067;-72
2022/12/11 03:38:03;;;;;;;64.32;24.48;;;-0.30;99.90;;;;;;4902815;29;20035;-69
2022/12/11 03:40:33;;;;;;;59.25;22.80;;;-0.30;99.90;;;;;;4903228;29;20075;-69
2022/12/11 03:42:59;;;;;;;62.40;26.15;;;-0.30;99.90;;;;;;4902525;29;20405;-71
2022/12/11 03:45:26;;;;;;;59.15;24.08;;;-0.50;99.90;;;;;;4903430;29;20031;-69
2022/12/11 03:47:52;;;;;;;60.53;23.83;;;-0.40;99.90;;;;;;4905715;29;20025;-69
2022/12/11 03:50:21;;;;;;;60.80;24.42;;;-0.30;99.90;;;;;;4908563;29;20020;-70
2022/12/11 03:52:47;;;;;;;58.47;24.10;;;-0.20;99.90;;;;;;4906935;29;20029;-69
2022/12/11 03:55:15;;;;;;;55.63;22.10;;;-0.20;99.90;;;;;;4905861;29;20085;-69
2022/12/11 03:57:41;;;;;;;59.42;24.92;;;0.00;99.90;;;;;;4903932;29;20044;-69
2022/12/11 04:00:10;;;;;;;61.87;24.07;;;-0.10;99.90;;;;;;4902265;29;20033;-70
2022/12/11 04:02:36;;;;;;;59.92;23.90;;;-0.10;99.90;;;;;;4901495;29;20402;-70
2022/12/11 04:05:02;;;;;;;52.60;22.83;;;0.10;99.90;;;;;;4902815;29;20024;-69
2022/12/11 04:07:27;;;;;;;58.65;23.85;;;0.20;99.90;;;;;;4902645;29;20029;-69
2022/12/11 04:09:54;;;;;;;49.60;23.70;;;0.10;99.90;;;;;;4901891;29;20036;-68
2022/12/11 04:12:19;;;;;;;56.70;24.13;;;0.10;99.90;;;;;;4901619;29;20036;-68
2022/12/11 04:15:03;;;;;;;57.10;23.17;;;0.10;99.90;;;;;;4901869;29;20024;-69
2022/12/11 04:25:50;;;;;;;58.55;23.55;;;0.10;99.90;;;;;;4901029;29;20088;-70
2022/12/11 04:28:16;;;;;;;57.92;23.75;;;0.10;99.90;;;;;;4899681;29;20036;-69
2022/12/11 04:30:48;;;;;;;60.30;26.30;;;0.10;99.90;;;;;;4899486;29;20031;-69
2022/12/11 04:33:13;;;;;;;55.78;22.98;;;0.10;99.90;;;;;;4899860;29;20021;-70
2022/12/11 04:35:39;;;;;;;57.30;24.80;;;0.20;99.90;;;;;;4900467;29;20099;-69
2022/12/11 04:38:04;;;;;;;56.37;22.97;;;0.20;99.90;;;;;;4899285;29;20033;-69
2022/12/11 04:40:30;;;;;;;55.10;24.37;;;0.30;99.90;;;;;;4899035;29;20419;-69
2022/12/11 04:42:56;;;;;;;56.83;22.27;;;0.20;99.90;;;;;;4898828;29;20050;-70
2022/12/11 04:45:21;;;;;;;55.73;23.53;;;0.30;99.90;;;;;;4896144;29;20025;-69
2022/12/11 04:47:47;;;;;;;52.30;22.83;;;0.20;99.90;;;;;;4882012;29;20033;-69
2022/12/11 04:50:14;;;;;;;55.30;24.37;;;0.10;99.90;;;;;;4882217;29;20391;-70
2022/12/11 04:52:40;;;;;;;54.42;24.13;;;0.00;99.90;;;;;;4880192;29;20454;-70
2022/12/11 04:55:07;;;;;;;55.08;22.40;;;0.10;99.90;;;;;;4882821;29;20069;-71
2022/12/11 04:57:33;;;;;;;57.60;23.13;;;0.20;99.90;;;;;;4881736;29;20427;-70
2022/12/11 04:59:58;;;;;;;52.78;22.30;;;0.20;99.90;;;;;;4880418;29;20040;-70
2022/12/11 05:02:25;;;;;;;55.40;22.85;;;0.20;99.90;;;;;;4881528;29;20483;-69
2022/12/11 05:04:50;;;;;;;60.22;22.90;;;0.10;99.90;;;;;;4881982;29;20471;-69
2022/12/11 05:07:16;;;;;;;58.17;23.77;;;0.00;99.90;;;;;;4880723;29;20044;-70
2022/12/11 05:09:41;;;;;;;50.10;22.00;;;0.10;99.90;;;;;;4882553;29;20029;-69
2022/12/11 05:12:08;;;;;;;52.07;22.53;;;0.10;99.90;;;;;;4886914;29;20029;-70
2022/12/11 05:14:33;;;;;;;59.60;24.67;;;0.00;99.90;;;;;;4898078;29;20020;-69
2022/12/11 05:16:59;;;;;;;56.97;22.73;;;-0.10;99.90;;;;;;4898803;29;20501;-69
2022/12/11 05:19:25;;;;;;;61.38;23.17;;;0.00;99.90;;;;;;4899803;29;20179;-70
2022/12/11 05:21:51;;;;;;;56.45;24.10;;;0.00;99.90;;;;;;4898282;29;20037;-71
2022/12/11 05:24:17;;;;;;;62.33;25.55;;;0.00;99.90;;;;;;4898316;29;20043;-69
2022/12/11 05:26:42;;;;;;;59.90;24.33;;;-0.10;99.90;;;;;;4898137;29;20032;-69
2022/12/11 05:29:08;;;;;;;59.63;24.13;;;-0.10;99.90;;;;;;4899220;29;20028;-71
2022/12/11 05:31:34;;;;;;;61.83;23.93;;;-0.10;99.90;;;;;;4899593;29;20398;-71
2022/12/11 05:33:59;;;;;;;60.08;24.33;;;-0.20;99.90;;;;;;4899648;29;20405;-69
2022/12/11 05:36:30;;;;;;;50.93;21.97;;;-0.20;99.90;;;;;;4899468;29;20036;-69
2022/12/11 05:38:57;;;;;;;56.40;24.83;;;-0.10;99.90;;;;;;4904021;29;20044;-68
2022/12/11 05:41:24;;;;;;;59.42;24.40;;;-0.10;99.90;;;;;;4905680;29;20028;-69
2022/12/11 05:43:50;;;;;;;58.28;24.10;;;-0.10;99.90;;;;;;4897274;29;20099;-69
2022/12/11 05:46:21;;;;;;;58.58;23.20;;;-0.20;99.90;;;;;;4897382;29;20490;-70
2022/12/11 05:48:49;;;;;;;52.90;21.25;;;-0.10;99.90;;;;;;4898719;29;20039;-69
2022/12/11 05:51:16;;;;;;;53.58;21.23;;;-0.10;99.90;;;;;;4899616;29;20112;-69
2022/12/11 05:53:42;;;;;;;49.22;20.60;;;-0.10;99.90;;;;;;4897629;29;20032;-69
2022/12/11 05:56:12;;;;;;;;;;;-0.10;99.90;;;;;;4899693;29;20036;-69
2022/12/11 05:58:38;;;;;;;51.15;22.20;;;-0.20;99.90;;;;;;4897874;29;19954;-69
2022/12/11 06:01:13;;;;;;;50.55;20.00;;;-0.20;99.90;;;;;;4899060;29;20120;-69
2022/12/11 06:03:39;;;;;;;52.58;21.58;;;-0.10;99.90;;;;;;4897184;29;20039;-69
2022/12/11 06:06:05;;;;;;;55.80;22.33;;;-0.10;99.90;;;;;;4897812;29;20033;-70
2022/12/11 06:08:31;;;;;;;50.92;22.83;;;-0.20;99.90;;;;;;4897569;29;20071;-69
2022/12/11 06:10:56;;;;;;;48.22;21.30;;;0.00;99.90;;;;;;4901948;29;20032;-70
2022/12/11 06:13:22;;;;;;;54.93;21.93;;;-0.10;99.90;;;;;;4900285;29;20029;-70
2022/12/11 06:15:47;;;;;;;54.70;22.90;;;0.00;99.90;;;;;;4900558;29;20032;-69
2022/12/11 06:18:13;;;;;;;52.83;22.00;;;0.10;99.90;;;;;;4900062;29;20044;-69
2022/12/11 06:20:39;;;;;;;50.07;21.80;;;0.10;99.90;;;;;;4899842;29;20028;-70
2022/12/11 06:23:04;;;;;;;48.10;20.93;;;0.10;99.90;;;;;;4899719;29;20029;-70
2022/12/11 06:25:30;;;;;;;52.77;23.27;;;0.10;99.90;;;;;;4900039;29;20028;-70
2022/12/11 06:27:56;;;;;;;59.78;23.52;;;0.10;99.90;;;;;;4897040;29;20025;-69
2022/12/11 06:30:22;;;;;;;57.08;21.45;;;-0.10;99.90;;;;;;4897795;29;20024;-71
2022/12/11 06:32:48;;;;;;;53.97;22.67;;;0.00;99.90;;;;;;4896335;29;20099;-70
2022/12/11 06:35:14;;;;;;;56.50;21.63;;;-0.10;99.90;;;;;;4902862;29;20091;-69
2022/12/11 06:37:40;;;;;;;55.90;21.33;;;-0.20;99.90;;;;;;4903327;29;20029;-69
2022/12/11 06:40:07;;;;;;;57.28;23.95;;;-0.10;99.90;;;;;;4902776;29;20142;-69
2022/12/11 06:42:33;;;;;;;52.10;21.85;;;-0.10;99.90;;;;;;4867996;29;1064706;-70
2022/12/11 06:44:59;;;;;;;52.50;21.15;;;-0.20;99.90;;;;;;4903588;29;20102;-70
2022/12/11 06:47:26;;;;;;;55.20;22.53;;;-0.30;99.90;;;;;;4903650;29;20028;-69
2022/12/11 06:49:52;;;;;;;51.35;22.17;;;-0.30;99.90;;;;;;4903682;29;20502;-69
2022/12/11 06:52:18;;;;;;;;;;;-0.40;99.90;;;;;;4903786;29;20024;-69
2022/12/11 06:54:44;;;;;;;53.15;20.40;;;-0.40;99.90;;;;;;4905259;29;19955;-69
2022/12/11 06:57:09;;;;;;;50.20;20.73;;;-0.30;99.90;;;;;;4904613;29;20028;-69
2022/12/11 06:59:35;;;;;;;51.83;21.20;;;-0.30;99.90;;;;;;4903197;29;20084;-68
2022/12/11 07:02:01;;;;;;;51.87;20.33;;;-0.40;99.90;;;;;;4903364;29;20037;-69
2022/12/11 07:04:26;;;;;;;53.03;22.03;;;-0.40;99.90;;;;;;4903462;29;20033;-69
2022/12/11 07:06:52;;;;;;;54.80;21.93;;;-0.40;99.90;;;;;;4903284;29;20103;-70
2022/12/11 07:09:18;;;;;;;54.53;22.67;;;-0.40;99.90;;;;;;4904895;29;20037;-68
2022/12/11 07:11:44;;;;;;;47.83;20.55;;;-0.30;99.90;;;;;;4903442;29;20115;-69
2022/12/11 07:14:09;;;;;;;47.80;21.93;;;-0.30;99.90;;;;;;4903165;29;20500;-69
2022/12/11 07:16:35;;;;;;;49.77;20.60;;;-0.30;99.90;;;;;;4904532;29;20039;-69
2022/12/11 07:19:00;;;;;;;51.33;20.57;;;-0.40;99.90;;;;;;4903777;29;20057;-69
2022/12/11 07:21:26;;;;;;;47.00;20.20;;;-0.20;99.90;;;;;;4903192;29;20047;-68
2022/12/11 07:23:52;;;;;;;50.60;21.47;;;-0.20;99.90;;;;;;4904472;29;20025;-69
2022/12/11 07:26:20;;;;;;;49.73;20.83;;;-0.20;99.90;;;;;;4904497;29;20025;-69
2022/12/11 07:28:46;;;;;;;55.10;20.05;;;-0.30;99.90;;;;;;4903174;29;20513;-69
2022/12/11 07:31:13;;;;;;;51.15;21.00;;;-0.10;99.90;;;;;;4903194;29;20036;-69
2022/12/11 07:33:40;;;;;;;44.83;19.98;;;-0.10;99.90;;;;;;4904310;29;20051;-69
2022/12/11 07:36:08;;;;;;;;;;;-0.10;99.90;;;;;;4903566;29;20029;-69
2022/12/11 07:38:33;;;;;;;54.85;20.25;;;0.00;99.90;;;;;;4903345;29;19913;-70
2022/12/11 07:41:00;;;;;;;51.33;21.10;;;0.00;99.90;;;;;;4905359;29;20040;-69
2022/12/11 07:43:31;;;;;;;54.75;20.92;;;0.10;99.90;;;;;;4906420;29;20073;-70
2022/12/11 07:46:09;;;;;;;50.05;20.95;;;0.10;99.90;;;;;;4904665;29;20102;-70
2022/12/11 07:48:37;;;;;;;48.58;21.10;;;0.00;99.90;;;;;;4902961;29;20079;-71
2022/12/11 07:51:14;;;;;;;48.15;19.77;;;0.10;99.90;;;;;;4905930;29;20028;-71
2022/12/11 07:53:44;;;;;;;49.55;19.15;;;0.10;99.90;;;;;;4903157;29;20029;-71
2022/12/11 07:56:09;;;;;;;49.67;20.30;;;0.10;99.90;;;;;;4905098;29;20041;-72
2022/12/11 07:58:35;;;;;;;52.83;21.50;;;0.10;99.90;;;;;;4907274;29;20056;-72
2022/12/11 08:01:01;;;;;;;53.35;22.48;;;0.20;99.90;;;;;;4902788;29;20051;-72
2022/12/11 08:03:27;;;;;;;46.93;22.47;;;0.20;99.90;;;;;;4901645;29;20036;-72
2022/12/11 08:05:52;;;;;;;55.73;24.27;;;0.20;99.90;;;;;;4900353;29;20112;-72
2022/12/11 08:08:18;;;;;;;55.90;22.30;;;0.20;99.90;;;;;;4901634;29;20025;-71
2022/12/11 08:10:44;;;;;;;54.63;22.40;;;0.20;99.90;;;;;;4902037;29;20053;-72
2022/12/11 08:13:10;;;;;;;52.72;22.80;;;0.20;99.90;;;;;;4901088;29;20080;-71
2022/12/11 08:15:36;;;;;;;50.57;21.10;;;0.30;99.90;;;;;;4901362;29;20393;-73
2022/12/11 08:18:02;;;;;;;53.92;20.90;;;0.30;99.90;;;;;;4901462;29;20036;-71
2022/12/11 08:20:27;;;;;;;49.77;21.87;;;0.40;99.90;;;;;;4899834;29;20566;-72
2022/12/11 08:22:53;;;;;;;58.90;25.03;;;0.40;99.90;;;;;;4899718;29;20024;-72
2022/12/11 08:25:18;;;;;;;52.43;21.50;;;0.30;99.90;;;;;;4901018;29;20075;-72
2022/12/11 08:27:44;;;;;;;56.70;23.77;;;0.40;99.90;;;;;;4899178;29;20075;-70
2022/12/11 08:30:10;;;;;;;52.60;20.73;;;0.40;99.90;;;;;;4901255;29;20031;-71
2022/12/11 08:32:35;;;;;;;57.58;24.35;;;0.40;99.90;;;;;;4907034;29;20029;-71
2022/12/11 08:35:01;;;;;;;58.13;23.77;;;0.50;99.90;;;;;;4907994;29;20474;-72
2022/12/11 08:37:26;;;;;;;51.83;24.43;;;0.50;99.90;;;;;;4905229;29;20032;-72
2022/12/11 08:39:52;;;;;;;52.83;21.60;;;0.50;99.90;;;;;;4901280;29;20458;-71
2022/12/11 08:42:17;;;;;;;51.83;21.77;;;0.60;99.90;;;;;;4901364;29;20480;-72
2022/12/11 08:44:43;;;;;;;49.93;21.70;;;0.60;99.90;;;;;;4899446;29;20028;-72
2022/12/11 08:47:09;;;;;;;53.43;23.10;;;0.60;99.90;;;;;;4900010;29;20371;-71
2022/12/11 08:49:35;;;;;;;50.53;19.90;;;0.60;99.90;;;;;;4900157;29;20025;-71
2022/12/11 08:52:03;;;;;;;53.75;21.83;;;0.60;99.90;;;;;;4898842;29;20035;-71
2022/12/11 08:54:29;;;;;;;49.60;22.02;;;0.60;99.90;;;;;;4898930;29;20025;-70
2022/12/11 08:56:54;;;;;;;52.60;22.00;;;0.60;99.90;;;;;;4898225;29;20398;-70
2022/12/11 08:59:20;;;;;;;49.70;20.60;;;0.60;99.90;;;;;;4899885;29;20386;-68
2022/12/11 09:01:45;;;;;;;48.50;20.33;;;0.70;99.90;;;;;;4899836;29;20021;-71
2022/12/11 09:04:11;;;;;;;53.83;21.87;;;0.70;99.90;;;;;;4898553;29;20065;-70
2022/12/11 09:06:36;;;;;;;47.30;20.73;;;0.80;99.90;;;;;;4899739;29;20041;-71
2022/12/11 09:09:03;;;;;;;49.80;19.53;;;0.80;99.90;;;;;;4898446;29;20029;-70
2022/12/11 09:11:31;;;;;;;45.83;18.60;;;0.60;99.90;;;;;;4891876;29;20504;-70
2022/12/11 09:13:57;;;;;;;54.45;21.67;;;0.70;99.90;;;;;;4902900;29;20037;-70
2022/12/11 09:16:24;;;;;;;44.72;20.25;;;0.70;99.90;;;;;;4899252;29;20036;-71
2022/12/11 09:18:52;;;;;;;52.75;21.80;;;0.90;99.90;;;;;;4899743;29;20450;-72
2022/12/11 09:21:21;;;;;;;51.25;21.13;;;0.80;99.90;;;;;;4898385;29;20088;-73
2022/12/11 09:23:47;;;;;;;49.03;20.88;;;0.80;99.90;;;;;;4897919;29;20032;-70
2022/12/11 09:26:16;;;;;;;50.33;21.02;;;0.80;99.90;;;;;;4880580;29;20494;-70
2022/12/11 09:28:42;;;;;;;49.35;21.50;;;0.90;99.90;;;;;;4880472;29;20505;-69
2022/12/11 09:31:22;;;;;;;50.17;21.05;;;0.90;99.90;;;;;;4895094;29;20031;-68
2022/12/11 09:33:48;;;;;;;50.00;19.70;;;0.90;99.90;;;;;;4880858;29;20537;-69
2022/12/11 09:36:14;;;;;;;48.22;20.05;;;0.90;99.90;;;;;;4895042;29;20505;-72
2022/12/11 09:38:42;;;;;;;53.42;21.92;;;1.00;99.90;;;;;;4880600;29;20041;-69
2022/12/11 09:41:26;;;;;;;51.03;23.08;;;1.00;99.90;;;;;;4880568;29;20033;-70
2022/12/11 09:44:08;;;;;;;45.40;20.10;;;1.00;99.90;;;;;;4880488;29;20033;-67
2022/12/11 09:46:35;;;;;;;49.63;20.75;;;1.10;99.90;;;;;;4880927;29;20040;-67
2022/12/11 09:49:03;;;;;;;46.10;20.60;;;1.00;99.90;;;;;;4881856;29;20032;-71
2022/12/11 09:51:39;;;;;;;48.80;21.63;;;1.10;99.90;;;;;;4896172;29;20112;-71
2022/12/11 09:54:05;;;;;;;52.30;21.55;;;1.10;99.90;;;;;;4896560;29;20362;-68
2022/12/11 09:56:30;;;;;;;48.60;21.13;;;1.20;99.90;;;;;;4880981;29;20025;-72
2022/12/11 09:59:08;;;;;;;54.37;20.80;;;1.30;99.90;;;;;;4879482;29;20097;-70
2022/12/11 10:01:41;;;;;;;47.67;20.73;;;1.30;99.90;;;;;;4879504;29;20044;-73
2022/12/11 10:04:25;;;;;;;48.58;20.75;;;1.30;99.90;;;;;;4895190;29;20036;-73
2022/12/11 10:07:14;;;;;;;50.60;22.08;;;1.50;99.90;;;;;;4878936;29;20032;-72
2022/12/11 10:09:45;;;;;;;44.50;19.15;;;1.40;99.90;;;;;;4879420;29;20039;-71
2022/12/11 10:12:11;;;;;;;47.45;20.85;;;1.40;99.90;;;;;;4879966;29;20029;-70
2022/12/11 10:15:11;;;;;;;51.13;21.53;;;1.50;99.90;;;;;;4899192;29;20066;-72
2022/12/11 10:17:39;;;;;;;46.10;19.73;;;1.60;99.90;;;;;;4905151;29;20043;-71
2022/12/11 10:20:27;;;;;;;51.65;20.73;;;1.50;99.90;;;;;;4899442;29;20048;-71
2022/12/11 10:22:55;;;;;;;50.42;21.95;;;1.40;99.90;;;;;;4899233;29;20120;-71
2022/12/11 10:25:28;;;;;;;47.22;21.35;;;1.40;99.90;;;;;;4897332;29;20124;-68
2022/12/11 10:27:54;;;;;;;54.35;22.83;;;1.40;99.90;;;;;;4891914;29;20032;-70
2022/12/11 10:30:23;;;;;;;48.05;21.38;;;1.30;99.90;;;;;;4891587;29;20021;-71
2022/12/11 10:33:17;;;;;;;50.45;20.55;;;1.30;99.90;;;;;;4884321;29;20029;-69
2022/12/11 10:36:00;;;;;;;48.38;20.40;;;1.40;99.90;;;;;;4878689;29;20033;-71
2022/12/11 10:38:52;;;;;;;44.22;21.13;;;1.60;99.90;;;;;;4894271;29;20033;-70
2022/12/11 10:41:37;;;;;;;47.80;21.45;;;1.60;99.90;;;;;;4879393;29;20045;-73
2022/12/11 10:44:17;;;;;;;50.45;22.00;;;1.50;99.90;;;;;;4893160;29;20032;-69
2022/12/11 10:46:45;;;;;;;47.30;20.90;;;1.40;99.90;;;;;;4904539;29;20052;-70
2022/12/11 10:49:50;;;;;;;53.63;22.92;;;1.50;99.90;;;;;;4908552;29;20025;-70
2022/12/11 10:52:24;;;;;;;45.75;21.55;;;1.60;99.90;;;;;;4858201;29;20037;-70
2022/12/11 10:55:03;;;;;;;46.25;20.95;;;1.70;99.90;;;;;;4899242;29;20115;-70
2022/12/11 10:57:31;;;;;;;49.50;21.73;;;1.70;99.90;;;;;;4899193;29;20056;-71
2022/12/11 10:59:58;;;;;;;53.25;23.02;;;1.50;99.90;;;;;;4897783;29;20032;-69
2022/12/11 11:02:31;;;;;;;43.25;20.35;;;1.60;99.90;;;;;;4898594;29;20021;-69
2022/12/11 11:04:59;;;;;;;47.92;21.63;;;1.60;99.90;;;;;;4899648;29;20032;-70
2022/12/11 11:07:30;;;;;;;51.25;21.38;;;1.70;99.90;;;;;;4897928;29;20387;-71
2022/12/11 11:10:22;;;;;;;53.72;24.92;;;1.80;99.90;;;;;;4897097;29;20024;-70
2022/12/11 11:12:49;;;;;;;52.47;22.58;;;1.90;99.90;;;;;;4894869;29;20039;-71
2022/12/11 11:15:18;;;;;;;55.47;26.08;;;1.90;99.90;;;;;;4900014;29;20092;-69
2022/12/11 11:17:47;;;;;;;50.03;22.27;;;2.00;99.90;;;;;;4899138;29;20043;-69
2022/12/11 11:20:16;;;;;;;52.00;23.40;;;2.10;99.90;;;;;;4900298;29;20025;-71
2022/12/11 11:22:48;;;;;;;49.47;23.17;;;2.20;99.90;;;;;;4902570;29;20458;-71
2022/12/11 11:25:20;;;;;;;49.65;22.27;;;2.30;99.90;;;;;;4902733;29;20033;-70
2022/12/11 11:27:58;;;;;;;49.50;21.83;;;2.20;99.90;;;;;;4902592;29;20028;-70
2022/12/11 11:30:29;;;;;;;50.13;23.33;;;2.10;99.90;;;;;;4900451;29;20029;-70
2022/12/11 11:33:03;;;;;;;51.35;23.13;;;2.10;99.90;;;;;;4901526;29;20028;-70
2022/12/11 11:35:30;;;;;;;44.42;21.65;;;2.10;99.90;;;;;;4902310;29;20108;-70
2022/12/11 11:38:04;;;;;;;45.85;22.50;;;2.20;99.90;;;;;;4902612;29;20025;-72
2022/12/11 11:40:36;;;;;;;50.38;22.85;;;2.30;99.90;;;;;;4900453;29;20091;-73
2022/12/11 11:43:27;;;;;;;50.40;22.10;;;2.30;99.90;;;;;;4900409;29;20040;-71
2022/12/11 11:46:00;;;;;;;54.00;23.75;;;2.20;99.90;;;;;;4883307;29;20167;-71
2022/12/11 11:48:33;;;;;;;47.40;22.13;;;2.10;99.90;;;;;;4883423;29;20029;-71
2022/12/11 11:51:20;;;;;;;51.92;23.35;;;2.20;99.90;;;;;;4881517;29;20108;-71
2022/12/11 11:53:50;;;;;;;57.78;23.38;;;2.20;99.90;;;;;;4883179;29;20375;-71
2022/12/11 11:56:27;;;;;;;59.35;25.38;;;2.30;99.90;;;;;;4883671;29;20389;-70
2022/12/11 11:59:17;;;;;;;49.17;22.85;;;2.20;99.90;;;;;;4881327;29;20120;-72
2022/12/11 12:01:43;;;;;;;53.78;23.52;;;2.20;99.90;;;;;;4881371;29;20039;-70
2022/12/11 12:04:10;;;;;;;50.07;22.83;;;2.20;99.90;;;;;;4881546;29;20029;-71
2022/12/11 12:06:54;;;;;;;50.47;24.70;;;2.10;99.90;;;;;;4882773;29;20033;-68
2022/12/11 12:09:37;;;;;;;49.97;23.85;;;2.10;99.90;;;;;;4881051;29;20025;-70
2022/12/11 12:12:15;;;;;;;47.83;22.60;;;2.10;99.90;;;;;;4882462;29;20025;-70
2022/12/11 12:14:59;;;;;;;54.33;23.33;;;2.10;99.90;;;;;;4891765;29;20024;-69
2022/12/11 12:17:47;;;;;;;45.10;22.40;;;2.00;99.90;;;;;;4901760;29;20076;-68
2022/12/11 12:20:48;;;;;;;49.70;23.13;;;2.00;99.90;;;;;;4901885;29;20032;-69
2022/12/11 12:23:43;;;;;;;49.20;21.73;;;2.20;99.90;;;;;;4901720;29;20083;-68
2022/12/11 12:26:31;;;;;;;49.72;22.55;;;2.40;99.90;;;;;;4902553;29;20051;-68
2022/12/11 12:29:34;;;;;;;46.40;22.08;;;2.40;99.90;;;;;;4903253;29;20029;-69
2022/12/11 12:32:27;;;;;;;47.15;21.20;;;2.40;99.90;;;;;;4902230;29;20029;-68
2022/12/11 12:35:12;;;;;;;46.47;21.90;;;2.30;99.90;;;;;;4900187;29;20367;-68
2022/12/11 12:37:53;;;;;;;46.55;22.67;;;2.30;99.90;;;;;;4901507;29;20029;-68
2022/12/11 12:40:36;;;;;;;48.60;21.55;;;2.40;99.90;;;;;;4900864;29;20052;-69
2022/12/11 12:43:22;;;;;;;49.25;23.58;;;2.50;99.90;;;;;;4901590;29;20036;-69
2022/12/11 12:46:13;;;;;;;49.35;23.33;;;2.60;99.90;;;;;;4882362;29;20164;-68
2022/12/11 12:48:39;;;;;;;43.95;20.42;;;2.50;99.90;;;;;;4877359;29;20384;-69
2022/12/11 12:51:05;;;;;;;43.53;21.90;;;2.40;99.90;;;;;;4882249;29;20054;-68
2022/12/11 12:53:32;;;;;;;;;;;2.50;99.90;;;;;;4882849;29;20028;-68
2022/12/11 12:56:00;;;;;;;46.30;21.33;;;2.60;99.90;;;;;;4882057;29;20357;-71
2022/12/11 12:58:41;;;;;;;46.45;21.75;;;2.60;99.90;;;;;;4882058;29;20482;-70
2022/12/11 13:01:13;;;;;;;44.05;20.75;;;2.60;99.90;;;;;;4881788;29;20279;-70